Rumney, New Hampshire
Current Conditions -  °F | °C
As of 8:55 PM on Friday 21 Nov 2014 (Local Time) from K1P1 Reporting Station
Clear Clear  
Wind Chill: 16°   Ceiling: Unl
Heat Index: 22°   Visibility: 10mi
Dew Point: 10°   Wind: 5mph
Humidity: 59%   Direction: 290°WNW
Pressure: 30.33"   Gusts: NA
Location:  43.81°N, 71.81°W
Report Text: K1P1 220155Z AUTO 29004KT 10SM CLR M05/M12 A3033 RMK AO2 T10551123
Loading
Personal Weather Stations






























Interactive Weather Map New forecast layout! Learn more

10-Day Weather Forecast

Advertisements
Track Severe Weather on mobile